createdAt,value
2018-03-16T00:00:27.850Z,11.70
2018-03-16T00:02:56.879Z,11.50
2018-03-16T00:05:25.167Z,11.50
2018-03-16T00:07:53.461Z,11.40
2018-03-16T00:10:21.790Z,11.30
2018-03-16T00:12:50.809Z,11.60
2018-03-16T00:15:19.073Z,11.50
2018-03-16T00:17:47.322Z,11.40
2018-03-16T00:20:15.602Z,11.60
2018-03-16T00:22:43.890Z,11.40
2018-03-16T00:25:12.303Z,11.60
2018-03-16T00:27:40.580Z,11.40
2018-03-16T00:30:08.828Z,11.60
2018-03-16T00:32:37.114Z,11.50
2018-03-16T00:35:06.108Z,11.50
2018-03-16T00:37:34.372Z,11.60
2018-03-16T00:40:02.831Z,11.70
2018-03-16T00:42:31.276Z,11.70
2018-03-16T00:45:00.334Z,11.70
2018-03-16T00:47:28.590Z,11.70
2018-03-16T00:49:57.646Z,11.80
2018-03-16T00:52:25.890Z,11.90
2018-03-16T00:54:54.161Z,11.60
2018-03-16T00:57:22.433Z,11.50
2018-03-16T00:59:50.695Z,11.70
2018-03-16T01:02:18.962Z,11.70
2018-03-16T01:04:47.238Z,11.70
2018-03-16T01:07:15.481Z,11.70
2018-03-16T01:09:43.761Z,11.70
2018-03-16T01:12:12.006Z,11.60
2018-03-16T01:14:40.485Z,11.30
2018-03-16T01:17:08.724Z,11.30
2018-03-16T01:19:37.725Z,11.30
2018-03-16T01:22:05.997Z,11.30
2018-03-16T01:24:34.233Z,11.00
2018-03-16T01:27:02.511Z,11.30
2018-03-16T01:29:30.765Z,11.10
2018-03-16T01:31:58.998Z,11.10
2018-03-16T01:34:28.029Z,11.30
2018-03-16T01:36:56.464Z,11.30
2018-03-16T01:39:24.693Z,11.20
2018-03-16T01:41:53.071Z,11.50
2018-03-16T01:44:23.058Z,11.20
2018-03-16T01:46:52.074Z,11.20
2018-03-16T01:49:20.408Z,11.30
2018-03-16T01:51:48.661Z,11.30
2018-03-16T01:54:17.718Z,11.20
2018-03-16T01:56:45.973Z,11.30
2018-03-16T01:59:14.430Z,11.20
2018-03-16T02:01:42.673Z,10.90
2018-03-16T02:04:10.905Z,11.00
2018-03-16T02:06:39.958Z,10.70
2018-03-16T02:09:08.201Z,11.00
2018-03-16T02:11:36.470Z,11.00
2018-03-16T02:14:04.732Z,11.30
2018-03-16T02:16:33.147Z,11.00
2018-03-16T02:19:01.377Z,10.90
2018-03-16T02:21:29.739Z,11.00
2018-03-16T02:23:59.070Z,11.20
2018-03-16T02:26:27.322Z,11.10
2018-03-16T02:28:55.614Z,11.20
2018-03-16T02:31:23.899Z,11.30
2018-03-16T02:33:52.166Z,11.10
2018-03-16T02:36:20.629Z,11.20
2018-03-16T02:38:48.863Z,11.20
2018-03-16T02:41:17.302Z,11.20
2018-03-16T02:43:46.436Z,11.20
2018-03-16T02:46:14.759Z,11.20
2018-03-16T02:48:42.997Z,11.20
2018-03-16T02:51:11.230Z,10.90
2018-03-16T02:53:39.582Z,10.90
2018-03-16T02:56:07.788Z,10.40
2018-03-16T02:58:36.036Z,10.50
2018-03-16T03:01:05.076Z,10.30
2018-03-16T03:03:33.321Z,10.40
2018-03-16T03:06:01.789Z,10.60
2018-03-16T03:08:30.064Z,10.20
2018-03-16T03:10:58.409Z,10.40
2018-03-16T03:13:26.785Z,10.60
2018-03-16T03:15:55.053Z,10.60
2018-03-16T03:18:23.329Z,10.80
2018-03-16T03:20:51.720Z,10.70
2018-03-16T03:23:20.132Z,10.90
2018-03-16T03:25:48.364Z,10.90
2018-03-16T03:28:16.587Z,11.00
2018-03-16T03:30:45.618Z,11.00
2018-03-16T03:33:13.893Z,10.90
2018-03-16T03:35:42.798Z,10.70
2018-03-16T03:38:11.234Z,10.70
2018-03-16T03:40:39.701Z,10.90
2018-03-16T03:43:08.617Z,10.80
2018-03-16T03:45:36.857Z,10.80
2018-03-16T03:48:05.157Z,10.90
2018-03-16T03:50:33.607Z,11.20
2018-03-16T03:53:01.910Z,11.30
2018-03-16T03:55:30.517Z,11.20
2018-03-16T03:57:58.782Z,10.90
2018-03-16T04:00:28.089Z,10.90
2018-03-16T04:02:57.282Z,10.40
2018-03-16T04:05:29.595Z,10.50
2018-03-16T04:07:57.887Z,10.50
2018-03-16T04:10:26.133Z,10.70
2018-03-16T04:12:54.462Z,10.80
2018-03-16T04:15:22.677Z,10.90
2018-03-16T04:17:51.057Z,10.90
2018-03-16T04:20:19.435Z,10.80
2018-03-16T04:22:47.701Z,10.90
2018-03-16T04:25:15.956Z,10.60
2018-03-16T04:27:44.978Z,10.30
2018-03-16T04:30:13.370Z,10.30
2018-03-16T04:32:41.605Z,10.30
2018-03-16T04:35:10.637Z,10.30
2018-03-16T04:37:38.869Z,10.70
2018-03-16T04:40:08.403Z,10.30
2018-03-16T04:42:36.854Z,10.30
2018-03-16T04:45:06.585Z,10.40
2018-03-16T04:47:35.098Z,10.50
2018-03-16T04:50:03.404Z,10.50
2018-03-16T04:52:31.709Z,10.30
2018-03-16T04:55:00.774Z,10.30
2018-03-16T04:57:29.014Z,10.30
2018-03-16T04:59:57.271Z,10.30
2018-03-16T05:02:25.545Z,10.50
2018-03-16T05:04:53.800Z,10.50
2018-03-16T05:07:22.030Z,10.30
2018-03-16T05:09:50.298Z,10.40
2018-03-16T05:12:18.546Z,10.10
2018-03-16T05:14:47.660Z,10.40
2018-03-16T05:17:15.905Z,10.30
2018-03-16T05:19:45.131Z,10.20
2018-03-16T05:22:14.257Z,10.20
2018-03-16T05:24:42.544Z,10.40
2018-03-16T05:27:10.822Z,10.40
2018-03-16T05:29:39.794Z,10.30
2018-03-16T05:32:08.119Z,10.50
2018-03-16T05:34:36.364Z,10.20
2018-03-16T05:37:04.671Z,10.00
2018-03-16T05:39:35.336Z,10.20
2018-03-16T05:42:04.441Z,10.10
2018-03-16T05:44:32.720Z,10.20
2018-03-16T05:47:00.996Z,10.10
2018-03-16T05:49:29.286Z,10.00
2018-03-16T05:51:57.547Z,10.60
2018-03-16T05:54:25.848Z,10.40
2018-03-16T05:56:54.141Z,10.50
2018-03-16T05:59:24.071Z,10.50
2018-03-16T06:01:53.146Z,10.50
2018-03-16T06:04:21.409Z,10.30
2018-03-16T06:06:51.182Z,10.30
2018-03-16T06:09:20.396Z,10.40
2018-03-16T06:11:48.829Z,10.20
2018-03-16T06:14:17.083Z,10.40
2018-03-16T06:16:46.349Z,10.10
2018-03-16T06:19:14.629Z,10.40
2018-03-16T06:21:43.737Z,10.30
2018-03-16T06:24:12.962Z,10.30
2018-03-16T06:26:41.298Z,10.10
2018-03-16T06:29:11.366Z,10.40
2018-03-16T06:31:41.482Z,10.40
2018-03-16T06:34:10.643Z,10.40
2018-03-16T06:36:45.299Z,10.00
2018-03-16T06:39:20.319Z,10.10
2018-03-16T06:41:48.547Z,10.00
2018-03-16T06:44:18.425Z,10.00
2018-03-16T06:46:47.437Z,10.10
2018-03-16T06:49:15.872Z,10.20
2018-03-16T06:51:44.114Z,9.90
2018-03-16T06:54:12.466Z,10.00
2018-03-16T06:56:40.737Z,9.70
2018-03-16T06:59:09.738Z,9.70
2018-03-16T07:01:37.981Z,9.70
2018-03-16T07:04:06.288Z,9.80
2018-03-16T07:06:36.112Z,9.80
2018-03-16T07:09:05.122Z,10.20
2018-03-16T07:11:33.428Z,9.80
2018-03-16T07:14:01.697Z,10.10
2018-03-16T07:16:30.584Z,10.10
2018-03-16T07:18:58.873Z,9.80
2018-03-16T07:21:27.105Z,9.70
2018-03-16T07:23:55.511Z,9.70
2018-03-16T07:26:23.766Z,9.60
2018-03-16T07:28:52.785Z,9.70
2018-03-16T07:31:22.678Z,9.70
2018-03-16T07:33:50.952Z,9.70
2018-03-16T07:36:19.190Z,9.70
2018-03-16T07:38:47.490Z,9.60
2018-03-16T07:41:15.740Z,9.70
2018-03-16T07:43:43.977Z,9.60
2018-03-16T07:46:16.143Z,9.40
2018-03-16T07:48:46.490Z,9.70
2018-03-16T07:51:14.765Z,9.60
2018-03-16T07:53:43.035Z,9.70
2018-03-16T07:56:11.276Z,9.60
2018-03-16T07:58:40.280Z,9.60
2018-03-16T08:01:08.560Z,9.50
2018-03-16T08:03:36.788Z,9.40
2018-03-16T08:06:05.916Z,9.40
2018-03-16T08:08:34.174Z,9.30
2018-03-16T08:11:03.961Z,9.30
2018-03-16T08:13:32.372Z,9.40
2018-03-16T08:16:00.629Z,9.10
2018-03-16T08:18:28.884Z,9.00
2018-03-16T08:20:57.153Z,9.00
2018-03-16T08:23:25.413Z,9.20
2018-03-16T08:25:54.540Z,9.00
2018-03-16T08:28:23.666Z,9.30
2018-03-16T08:30:51.900Z,9.10
2018-03-16T08:33:20.129Z,9.30
2018-03-16T08:35:51.160Z,8.70
2018-03-16T08:38:20.137Z,8.80
2018-03-16T08:40:48.400Z,9.10
2018-03-16T08:43:16.674Z,8.80
2018-03-16T08:45:44.929Z,9.00
2018-03-16T08:48:13.197Z,8.80
2018-03-16T08:50:41.515Z,8.60
2018-03-16T08:53:09.751Z,8.70
2018-03-16T08:55:38.226Z,8.80
2018-03-16T08:58:07.463Z,9.00
2018-03-16T09:00:35.913Z,8.90
2018-03-16T09:03:04.244Z,9.00
2018-03-16T09:05:34.017Z,9.00
2018-03-16T09:08:02.257Z,9.00
2018-03-16T09:10:30.522Z,9.00
2018-03-16T09:12:58.785Z,9.30
2018-03-16T09:15:27.016Z,9.20
2018-03-16T09:17:55.274Z,9.10
2018-03-16T09:20:23.501Z,9.00
2018-03-16T09:22:52.541Z,9.30
2018-03-16T09:25:20.771Z,9.20
2018-03-16T09:27:49.073Z,9.40
2018-03-16T09:30:18.358Z,9.30
2018-03-16T09:32:47.764Z,9.40
2018-03-16T09:35:16.013Z,9.40
2018-03-16T09:37:44.261Z,9.30
2018-03-16T09:40:12.500Z,9.20
2018-03-16T09:42:40.886Z,9.30
2018-03-16T09:45:09.125Z,9.30
2018-03-16T09:47:37.378Z,9.20
2018-03-16T09:50:07.190Z,9.20
2018-03-16T09:52:35.557Z,9.40
2018-03-16T09:55:16.550Z,9.30
2018-03-16T09:57:44.843Z,9.30
2018-03-16T10:00:13.081Z,9.30
2018-03-16T10:02:41.334Z,9.00
2018-03-16T10:05:10.345Z,9.20
2018-03-16T10:07:38.617Z,9.20
2018-03-16T10:10:07.987Z,9.20
2018-03-16T10:12:36.235Z,9.30
2018-03-16T10:15:04.487Z,9.30
2018-03-16T10:17:32.717Z,9.10
2018-03-16T10:20:01.844Z,9.20
2018-03-16T10:22:30.111Z,9.20
2018-03-16T10:24:59.117Z,9.20
2018-03-16T10:27:28.235Z,9.20
2018-03-16T10:29:56.601Z,9.20
2018-03-16T10:32:24.832Z,9.20
2018-03-16T10:34:54.615Z,9.30
2018-03-16T10:37:23.019Z,9.10
2018-03-16T10:39:51.821Z,9.30
2018-03-16T10:42:21.472Z,9.00
2018-03-16T10:44:49.792Z,9.00
2018-03-16T10:47:18.039Z,8.80
2018-03-16T10:49:46.353Z,9.20
2018-03-16T10:52:15.389Z,8.90
2018-03-16T10:54:43.644Z,9.00
2018-03-16T10:57:11.900Z,9.00
2018-03-16T10:59:40.156Z,9.30
2018-03-16T11:02:14.195Z,9.30
2018-03-16T11:04:42.429Z,9.40
2018-03-16T11:07:19.713Z,9.60
2018-03-16T11:09:48.072Z,9.60
2018-03-16T11:12:16.314Z,9.50
2018-03-16T11:14:44.554Z,9.40
2018-03-16T11:17:12.885Z,9.60
2018-03-16T11:19:41.283Z,9.40
2018-03-16T11:22:09.517Z,9.40
2018-03-16T11:24:38.519Z,9.20
2018-03-16T11:27:06.792Z,9.50
2018-03-16T11:29:35.190Z,9.20
2018-03-16T11:32:03.453Z,9.30
2018-03-16T11:34:34.718Z,9.10
2018-03-16T11:37:02.965Z,9.30
2018-03-16T11:39:32.093Z,9.20
2018-03-16T11:42:00.410Z,9.20
2018-03-16T11:44:30.208Z,9.30
2018-03-16T11:46:58.449Z,9.30
2018-03-16T11:49:26.707Z,9.40
2018-03-16T11:51:57.188Z,9.30
2018-03-16T11:54:27.162Z,9.30
2018-03-16T11:56:58.402Z,9.10
2018-03-16T11:59:27.753Z,9.20
2018-03-16T12:01:56.809Z,9.00
2018-03-16T12:04:25.093Z,8.90
2018-03-16T12:06:53.337Z,9.10
2018-03-16T12:09:21.645Z,9.20
2018-03-16T12:11:49.901Z,9.20
2018-03-16T12:14:18.640Z,9.10
2018-03-16T12:16:46.868Z,9.30
2018-03-16T12:19:15.771Z,9.30
2018-03-16T12:21:44.014Z,9.40
2018-03-16T12:24:13.061Z,9.20
2018-03-16T12:26:41.656Z,9.20
2018-03-16T12:29:09.891Z,9.30
2018-03-16T12:31:39.090Z,9.30
2018-03-16T12:34:07.701Z,8.80
2018-03-16T12:36:35.929Z,9.20
2018-03-16T12:39:05.767Z,9.30
2018-03-16T12:41:34.110Z,9.30
2018-03-16T12:44:04.081Z,9.00
2018-03-16T12:46:32.325Z,8.90
2018-03-16T12:49:00.583Z,8.90
2018-03-16T12:51:29.703Z,8.90
2018-03-16T12:53:58.831Z,8.90
2018-03-16T12:56:27.990Z,8.60
2018-03-16T12:58:57.011Z,8.80
2018-03-16T13:01:25.276Z,9.00
2018-03-16T13:03:53.579Z,8.70
2018-03-16T13:06:22.617Z,8.50
2018-03-16T13:08:50.862Z,9.00
2018-03-16T13:11:19.155Z,9.00
2018-03-16T13:13:47.386Z,8.80
2018-03-16T13:16:15.628Z,8.50
2018-03-16T13:18:44.807Z,9.00
2018-03-16T13:21:13.097Z,8.90
2018-03-16T13:23:41.370Z,8.70
2018-03-16T13:26:09.589Z,8.90
2018-03-16T13:28:38.036Z,8.80
2018-03-16T13:31:06.299Z,8.90
2018-03-16T13:33:35.316Z,8.90
2018-03-16T13:36:04.422Z,8.70
2018-03-16T13:38:32.690Z,8.80
2018-03-16T13:41:01.145Z,8.80
2018-03-16T13:43:29.627Z,8.90
2018-03-16T13:45:58.678Z,8.90
2018-03-16T13:48:26.980Z,8.90
2018-03-16T13:50:56.232Z,8.80
2018-03-16T13:53:25.268Z,8.50
2018-03-16T13:55:54.480Z,8.50
2018-03-16T13:58:22.762Z,8.50
2018-03-16T14:00:51.465Z,8.60
2018-03-16T14:03:19.733Z,8.60
2018-03-16T14:05:48.031Z,8.20
2018-03-16T14:08:16.410Z,8.20
2018-03-16T14:10:45.438Z,8.70
2018-03-16T14:13:13.839Z,8.40
2018-03-16T14:15:42.071Z,8.90
2018-03-16T14:18:10.343Z,8.40
2018-03-16T14:20:39.466Z,8.60
2018-03-16T14:23:07.784Z,8.40
2018-03-16T14:25:36.010Z,8.40
2018-03-16T14:28:04.278Z,8.10
2018-03-16T14:30:34.621Z,7.90
2018-03-16T14:33:02.853Z,8.10
2018-03-16T14:35:31.860Z,8.10
2018-03-16T14:38:01.246Z,7.90
2018-03-16T14:40:29.653Z,8.40
2018-03-16T14:42:57.888Z,7.80
2018-03-16T14:45:26.269Z,7.90
2018-03-16T14:47:54.527Z,7.90
2018-03-16T14:50:22.771Z,7.60
2018-03-16T14:52:51.046Z,7.60
2018-03-16T14:55:19.366Z,7.50
2018-03-16T14:57:47.595Z,7.50
2018-03-16T15:00:15.869Z,7.60
2018-03-16T15:02:44.123Z,7.60
2018-03-16T15:05:12.374Z,7.60
2018-03-16T15:07:40.626Z,7.50
2018-03-16T15:10:09.091Z,7.60
2018-03-16T15:12:37.366Z,7.80
2018-03-16T15:15:07.677Z,7.70
2018-03-16T15:17:35.944Z,7.20
2018-03-16T15:20:04.285Z,7.20
2018-03-16T15:22:33.734Z,7.40
2018-03-16T15:25:03.089Z,7.30
2018-03-16T15:27:32.170Z,7.30
2018-03-16T15:30:00.427Z,7.70
2018-03-16T15:32:28.738Z,7.30
2018-03-16T15:34:57.018Z,7.60
2018-03-16T15:37:25.396Z,7.50
2018-03-16T15:39:53.809Z,7.70
2018-03-16T15:42:22.263Z,7.60
2018-03-16T15:44:50.470Z,7.60
2018-03-16T15:47:18.750Z,7.30
2018-03-16T15:49:46.993Z,7.40
2018-03-16T15:52:16.048Z,7.30
2018-03-16T15:54:44.321Z,7.30
2018-03-16T15:57:12.736Z,7.20
2018-03-16T15:59:41.212Z,7.00
2018-03-16T16:02:09.515Z,6.90
2018-03-16T16:04:37.741Z,7.00
2018-03-16T16:07:07.579Z,6.80
2018-03-16T16:09:35.827Z,6.80
2018-03-16T16:12:04.049Z,6.90
2018-03-16T16:14:32.353Z,6.90
2018-03-16T16:17:00.622Z,6.80
2018-03-16T16:19:28.881Z,6.60
2018-03-16T16:21:57.543Z,6.50
2018-03-16T16:24:27.419Z,6.60
2018-03-16T16:26:55.717Z,6.70
2018-03-16T16:29:24.637Z,6.50
2018-03-16T16:31:52.927Z,6.80
2018-03-16T16:34:21.882Z,6.80
2018-03-16T16:36:50.182Z,6.70
2018-03-16T16:39:18.447Z,6.80
2018-03-16T16:41:46.667Z,6.80
2018-03-16T16:44:14.930Z,6.80
2018-03-16T16:46:43.980Z,6.80
2018-03-16T16:49:12.240Z,6.90
2018-03-16T16:51:40.494Z,7.00
2018-03-16T16:54:08.786Z,7.00
2018-03-16T16:56:37.066Z,7.20
2018-03-16T16:59:06.269Z,7.10
2018-03-16T17:01:34.533Z,6.90
2018-03-16T17:04:02.817Z,7.00
2018-03-16T17:06:31.871Z,7.00
2018-03-16T17:09:00.156Z,7.00
2018-03-16T17:11:28.421Z,6.70
2018-03-16T17:13:57.438Z,6.70
2018-03-16T17:16:25.699Z,6.70
2018-03-16T17:18:54.869Z,6.70
2018-03-16T17:21:23.154Z,6.50
2018-03-16T17:23:52.244Z,6.40
2018-03-16T17:26:21.314Z,6.30
2018-03-16T17:28:50.301Z,6.40
2018-03-16T17:31:18.656Z,6.30
2018-03-16T17:33:46.930Z,6.30
2018-03-16T17:36:15.181Z,6.20
2018-03-16T17:38:43.460Z,6.20
2018-03-16T17:41:11.702Z,6.50
2018-03-16T17:43:40.023Z,6.20
2018-03-16T17:46:08.331Z,6.40
2018-03-16T17:48:38.602Z,6.50
2018-03-16T17:51:06.839Z,6.30
2018-03-16T17:53:35.141Z,6.40
2018-03-16T17:56:03.461Z,6.50
2018-03-16T17:58:31.746Z,6.40
2018-03-16T18:01:00.027Z,6.30
2018-03-16T18:03:28.553Z,6.10
2018-03-16T18:05:56.864Z,6.30
2018-03-16T18:08:25.309Z,6.10
2018-03-16T18:10:53.545Z,6.20
2018-03-16T18:13:23.362Z,6.00
2018-03-16T18:15:52.373Z,6.00
2018-03-16T18:18:20.641Z,6.00
2018-03-16T18:20:48.956Z,6.00
2018-03-16T18:23:18.938Z,5.90
2018-03-16T18:25:47.960Z,5.90
2018-03-16T18:28:16.252Z,5.90
2018-03-16T18:30:45.485Z,6.00
2018-03-16T18:33:14.757Z,5.80
2018-03-16T18:35:43.794Z,5.90
2018-03-16T18:38:13.490Z,5.70
2018-03-16T18:40:42.164Z,5.80
2018-03-16T18:43:10.495Z,5.80
2018-03-16T18:45:39.009Z,5.50
2018-03-16T18:48:07.907Z,5.70
2018-03-16T18:50:36.204Z,5.70
2018-03-16T18:53:04.553Z,5.70
2018-03-16T18:55:33.008Z,5.80
2018-03-16T18:58:01.250Z,5.70
2018-03-16T19:00:29.556Z,5.30
2018-03-16T19:02:57.810Z,5.50
2018-03-16T19:05:26.099Z,5.70
2018-03-16T19:07:54.402Z,5.50
2018-03-16T19:10:22.646Z,5.60
2018-03-16T19:12:50.918Z,5.50
2018-03-16T19:15:19.238Z,5.30
2018-03-16T19:17:48.541Z,5.30
2018-03-16T19:20:16.811Z,5.50
2018-03-16T19:22:45.113Z,5.00
2018-03-16T19:25:13.365Z,5.20
2018-03-16T19:27:41.624Z,5.10
2018-03-16T19:30:09.930Z,5.00
2018-03-16T19:32:38.176Z,5.40
2018-03-16T19:35:06.503Z,5.30
2018-03-16T19:37:34.756Z,5.40
2018-03-16T19:40:03.043Z,5.30
2018-03-16T19:42:31.316Z,5.00
2018-03-16T19:44:59.577Z,5.00
2018-03-16T19:47:27.825Z,5.00
2018-03-16T19:49:56.082Z,5.00
2018-03-16T19:52:24.396Z,4.80
2018-03-16T19:54:52.682Z,4.80
2018-03-16T19:57:21.087Z,4.70
2018-03-16T19:59:49.338Z,5.10
2018-03-16T20:02:18.389Z,4.80
2018-03-16T20:04:46.715Z,4.80
2018-03-16T20:07:15.790Z,4.80
2018-03-16T20:09:44.061Z,5.00
2018-03-16T20:12:14.097Z,5.00
2018-03-16T20:14:43.811Z,5.00
2018-03-16T20:17:12.233Z,5.00
2018-03-16T20:19:40.507Z,5.20
2018-03-16T20:22:08.749Z,4.80
2018-03-16T20:24:37.036Z,5.10
2018-03-16T20:27:05.324Z,5.20
2018-03-16T20:29:33.666Z,5.30
2018-03-16T20:32:02.717Z,5.00
2018-03-16T20:34:31.775Z,4.90
2018-03-16T20:37:00.044Z,5.00
2018-03-16T20:39:28.288Z,5.00
2018-03-16T20:41:57.774Z,4.70
2018-03-16T20:44:26.050Z,4.80
2018-03-16T20:46:56.202Z,4.70
2018-03-16T20:49:25.350Z,4.80
2018-03-16T20:51:54.531Z,4.70
2018-03-16T20:54:22.830Z,4.70
2018-03-16T20:56:51.087Z,5.00
2018-03-16T20:59:19.398Z,4.80
2018-03-16T21:01:47.853Z,4.80
2018-03-16T21:04:16.135Z,4.70
2018-03-16T21:06:44.409Z,4.70
2018-03-16T21:09:12.672Z,4.90
2018-03-16T21:11:41.065Z,4.80
2018-03-16T21:14:09.368Z,4.50
2018-03-16T21:16:37.627Z,4.40
2018-03-16T21:19:06.009Z,4.50
2018-03-16T21:21:34.317Z,4.50
2018-03-16T21:24:02.572Z,4.60
2018-03-16T21:26:30.887Z,4.50
2018-03-16T21:28:59.601Z,4.50
2018-03-16T21:31:29.038Z,4.60
2018-03-16T21:33:57.421Z,4.70
2018-03-16T21:36:25.669Z,4.50
2018-03-16T21:38:53.927Z,4.70
2018-03-16T21:41:22.467Z,4.70
2018-03-16T21:43:50.763Z,4.90
2018-03-16T21:46:20.151Z,4.60
2018-03-16T21:48:48.370Z,4.70
2018-03-16T21:51:16.631Z,4.60
2018-03-16T21:53:44.960Z,4.60
2018-03-16T21:56:13.411Z,4.50
2018-03-16T21:58:41.702Z,4.20
2018-03-16T22:01:10.922Z,4.30
2018-03-16T22:03:39.207Z,4.60
2018-03-16T22:06:08.117Z,4.20
2018-03-16T22:08:37.997Z,4.30
2018-03-16T22:11:06.307Z,4.20
2018-03-16T22:13:34.546Z,4.20
2018-03-16T22:16:02.989Z,4.20
2018-03-16T22:18:31.307Z,4.30
2018-03-16T22:20:59.584Z,4.00
2018-03-16T22:23:27.849Z,4.20
2018-03-16T22:25:56.157Z,4.00
2018-03-16T22:28:24.434Z,4.20
2018-03-16T22:30:52.751Z,4.20
2018-03-16T22:33:21.010Z,4.30
2018-03-16T22:35:50.046Z,4.00
2018-03-16T22:38:18.323Z,4.00
2018-03-16T22:40:46.911Z,4.00
2018-03-16T22:43:15.154Z,4.00
2018-03-16T22:45:43.427Z,4.10
2018-03-16T22:48:12.491Z,4.00
2018-03-16T22:50:40.766Z,4.00
2018-03-16T22:53:09.836Z,4.00
2018-03-16T22:55:38.076Z,4.10
2018-03-16T22:58:06.444Z,4.10
2018-03-16T23:00:34.979Z,4.00
2018-03-16T23:03:05.042Z,4.10
2018-03-16T23:05:33.335Z,4.00
2018-03-16T23:08:01.612Z,3.90
2018-03-16T23:10:29.922Z,4.00
2018-03-16T23:12:58.967Z,4.00
2018-03-16T23:15:27.217Z,4.10
2018-03-16T23:17:55.461Z,4.10
2018-03-16T23:20:23.717Z,4.00
2018-03-16T23:22:51.981Z,4.00
2018-03-16T23:25:20.278Z,4.00
2018-03-16T23:27:48.556Z,4.00
2018-03-16T23:30:16.786Z,4.00
2018-03-16T23:32:45.089Z,4.00
2018-03-16T23:35:13.540Z,3.80
2018-03-16T23:37:41.806Z,4.00
2018-03-16T23:40:11.587Z,3.70
2018-03-16T23:42:39.829Z,3.90
2018-03-16T23:45:08.070Z,3.80
2018-03-16T23:47:36.316Z,3.80
2018-03-16T23:50:04.574Z,3.70
2018-03-16T23:52:32.845Z,3.70
2018-03-16T23:55:01.107Z,3.80
2018-03-16T23:57:29.383Z,3.60
2018-03-16T23:59:57.658Z,3.60
